createdAt,value
2019-05-28T00:00:44.588Z,2.93
2019-05-28T00:03:13.101Z,3.70
2019-05-28T00:05:41.513Z,3.30
2019-05-28T00:08:10.082Z,2.90
2019-05-28T00:10:38.518Z,3.17
2019-05-28T00:13:06.925Z,2.77
2019-05-28T00:15:35.365Z,3.37
2019-05-28T00:18:04.233Z,3.50
2019-05-28T00:20:32.697Z,2.80
2019-05-28T00:23:01.137Z,3.10
2019-05-28T00:25:29.550Z,3.27
2019-05-28T00:27:57.964Z,3.10
2019-05-28T00:30:26.380Z,3.23
2019-05-28T00:32:55.377Z,3.33
2019-05-28T00:35:23.939Z,3.20
2019-05-28T00:37:52.454Z,2.70
2019-05-28T00:40:20.995Z,3.23
2019-05-28T00:42:49.414Z,3.50
2019-05-28T00:45:18.580Z,3.10
2019-05-28T00:47:47.090Z,3.17
2019-05-28T00:50:16.833Z,3.50
2019-05-28T00:52:45.258Z,3.00
2019-05-28T00:55:13.832Z,2.57
2019-05-28T00:57:45.526Z,2.83
2019-05-28T01:00:14.972Z,3.90
2019-05-28T01:02:43.406Z,3.20
2019-05-28T01:05:12.349Z,2.90
2019-05-28T01:07:40.771Z,3.00
2019-05-28T01:10:10.644Z,3.00
2019-05-28T01:12:39.060Z,3.17
2019-05-28T01:15:09.651Z,3.50
2019-05-28T01:17:38.196Z,3.73
2019-05-28T01:20:08.823Z,3.63
2019-05-28T01:22:37.271Z,3.57
2019-05-28T01:25:07.310Z,3.47
2019-05-28T01:27:35.869Z,3.47
2019-05-28T01:30:06.901Z,3.53
2019-05-28T01:32:35.393Z,3.50
2019-05-28T01:35:05.203Z,3.80
2019-05-28T01:37:33.604Z,3.60
2019-05-28T01:40:02.163Z,3.47
2019-05-28T01:42:30.593Z,3.77
2019-05-28T01:44:58.994Z,3.93
2019-05-28T01:47:27.433Z,3.63
2019-05-28T01:49:55.847Z,3.73
2019-05-28T01:52:24.275Z,3.70
2019-05-28T01:54:52.707Z,3.73
2019-05-28T01:57:21.116Z,3.77
2019-05-28T01:59:49.542Z,3.80
2019-05-28T02:02:17.963Z,3.80
2019-05-28T02:04:46.418Z,3.70
2019-05-28T02:07:14.826Z,3.50
2019-05-28T02:09:43.263Z,3.33
2019-05-28T02:12:11.687Z,3.20
2019-05-28T02:14:40.133Z,3.33
2019-05-28T02:17:08.634Z,4.03
2019-05-28T02:19:37.052Z,3.67
2019-05-28T02:22:05.561Z,3.77
2019-05-28T02:24:33.982Z,4.13
2019-05-28T02:27:02.476Z,3.67
2019-05-28T02:29:30.900Z,4.07
2019-05-28T02:31:59.322Z,3.90
2019-05-28T02:34:27.749Z,4.23
2019-05-28T02:36:56.248Z,4.33
2019-05-28T02:39:24.644Z,3.97
2019-05-28T02:41:53.083Z,3.90
2019-05-28T02:44:21.715Z,4.33
2019-05-28T02:46:50.141Z,3.70
2019-05-28T02:49:18.557Z,4.27
2019-05-28T02:51:47.604Z,3.43
2019-05-28T02:54:16.373Z,4.00
2019-05-28T02:56:47.367Z,4.37
2019-05-28T02:59:18.555Z,3.87
2019-05-28T03:01:50.761Z,4.03
2019-05-28T03:04:22.228Z,4.17
2019-05-28T03:06:53.302Z,4.43
2019-05-28T03:09:23.295Z,4.00
2019-05-28T03:11:51.731Z,4.80
2019-05-28T03:14:20.185Z,3.90
2019-05-28T03:16:51.618Z,4.40
2019-05-28T03:19:20.425Z,3.97
2019-05-28T03:21:50.092Z,4.27
2019-05-28T03:24:20.361Z,4.60
2019-05-28T03:26:48.853Z,3.50
2019-05-28T03:29:17.429Z,4.00
2019-05-28T03:32:06.101Z,4.60
2019-05-28T03:34:16.073Z,4.20
2019-05-28T03:36:46.236Z,4.63
2019-05-28T03:39:16.533Z,4.37
2019-05-28T03:41:44.961Z,4.17
2019-05-28T03:44:13.374Z,4.10
2019-05-28T03:46:41.789Z,4.40
2019-05-28T03:49:10.227Z,4.40
2019-05-28T03:51:38.624Z,4.27
2019-05-28T03:54:07.063Z,4.57
2019-05-28T03:56:35.453Z,5.03
2019-05-28T03:59:04.451Z,5.13
2019-05-28T04:01:32.925Z,4.80
2019-05-28T04:04:01.334Z,4.73
2019-05-28T04:06:29.763Z,4.77
2019-05-28T04:08:58.186Z,4.53
2019-05-28T04:11:26.595Z,4.33
2019-05-28T04:13:55.042Z,5.30
2019-05-28T04:16:23.446Z,4.87
2019-05-28T04:18:51.861Z,4.10
2019-05-28T04:21:20.329Z,5.10
2019-05-28T04:23:48.733Z,5.23
2019-05-28T04:26:17.186Z,5.20
2019-05-28T04:28:45.601Z,4.60
2019-05-28T04:31:14.057Z,4.07
2019-05-28T04:33:42.449Z,4.73
2019-05-28T04:36:10.872Z,4.50
2019-05-28T04:38:39.284Z,4.90
2019-05-28T04:41:07.737Z,4.67
2019-05-28T04:43:36.159Z,4.70
2019-05-28T04:46:04.658Z,5.03
2019-05-28T04:48:33.081Z,4.77
2019-05-28T04:51:01.519Z,4.27
2019-05-28T04:53:29.944Z,4.47
2019-05-28T04:55:58.355Z,4.83
2019-05-28T04:58:26.799Z,4.53
2019-05-28T05:00:55.229Z,4.20
2019-05-28T05:03:23.682Z,4.17
2019-05-28T05:05:52.083Z,4.20
2019-05-28T05:08:20.502Z,4.13
2019-05-28T05:10:48.949Z,4.93
2019-05-28T05:13:17.391Z,4.30
2019-05-28T05:15:47.291Z,4.20
2019-05-28T05:18:15.996Z,3.97
2019-05-28T05:20:44.430Z,4.50
2019-05-28T05:23:12.924Z,3.60
2019-05-28T05:25:41.417Z,4.40
2019-05-28T05:28:09.822Z,3.50
2019-05-28T05:30:38.259Z,4.23
2019-05-28T05:33:19.103Z,4.20
2019-05-28T05:35:36.890Z,4.50
2019-05-28T05:38:05.418Z,5.00
2019-05-28T05:40:33.881Z,4.10
2019-05-28T05:43:02.313Z,4.17
2019-05-28T05:45:30.716Z,4.10
2019-05-28T05:47:59.123Z,4.50
2019-05-28T05:50:27.559Z,3.90
2019-05-28T05:52:55.961Z,4.07
2019-05-28T05:55:24.391Z,4.00
2019-05-28T05:57:52.805Z,4.43
2019-05-28T06:00:21.676Z,3.67
2019-05-28T06:02:50.103Z,4.50
2019-05-28T06:05:18.600Z,4.00
2019-05-28T06:07:47.049Z,4.17
2019-05-28T06:10:15.899Z,4.43
2019-05-28T06:12:44.316Z,3.97
2019-05-28T06:15:13.025Z,3.23
2019-05-28T06:17:41.433Z,3.90
2019-05-28T06:20:10.391Z,3.87
2019-05-28T06:22:38.820Z,3.83
2019-05-28T06:25:09.047Z,3.43
2019-05-28T06:27:37.450Z,3.70
2019-05-28T06:30:09.130Z,4.33
2019-05-28T06:32:38.662Z,4.37
2019-05-28T06:35:08.611Z,4.43
2019-05-28T06:37:37.054Z,4.07
2019-05-28T06:40:07.784Z,4.07
2019-05-28T06:42:39.440Z,4.23
2019-05-28T06:45:07.996Z,3.87
2019-05-28T06:47:36.396Z,4.93
2019-05-28T06:50:09.980Z,4.20
2019-05-28T06:52:39.131Z,4.30
2019-05-28T06:55:08.162Z,3.80
2019-05-28T06:57:36.608Z,4.33
2019-05-28T07:00:07.711Z,4.10
2019-05-28T07:02:36.212Z,4.00
2019-05-28T07:05:06.360Z,4.00
2019-05-28T07:07:34.793Z,3.90
2019-05-28T07:10:04.675Z,4.40
2019-05-28T07:12:34.721Z,4.17
2019-05-28T07:15:03.666Z,3.93
2019-05-28T07:17:32.045Z,4.47
2019-05-28T07:20:00.477Z,3.93
2019-05-28T07:22:28.969Z,3.73
2019-05-28T07:24:57.400Z,4.00
2019-05-28T07:27:25.823Z,3.80
2019-05-28T07:29:54.243Z,4.00
2019-05-28T07:32:22.661Z,3.37
2019-05-28T07:34:51.078Z,3.90
2019-05-28T07:37:19.624Z,3.13
2019-05-28T07:39:48.033Z,3.87
2019-05-28T07:42:31.851Z,3.80
2019-05-28T07:44:46.668Z,3.07
2019-05-28T07:47:15.070Z,3.57
2019-05-28T07:49:43.510Z,3.53
2019-05-28T07:52:11.938Z,3.67
2019-05-28T07:54:40.356Z,3.50
2019-05-28T07:57:08.866Z,3.87
2019-05-28T07:59:37.301Z,3.77
2019-05-28T08:02:05.867Z,3.40
2019-05-28T08:04:46.851Z,3.73
2019-05-28T08:07:04.511Z,3.40
2019-05-28T08:09:32.994Z,3.37
2019-05-28T08:12:01.400Z,4.37
2019-05-28T08:14:29.822Z,3.33
2019-05-28T08:16:58.260Z,3.77
2019-05-28T08:19:26.676Z,3.40
2019-05-28T08:21:55.129Z,4.30
2019-05-28T08:24:23.593Z,3.80
2019-05-28T08:26:52.007Z,4.40
2019-05-28T08:29:20.449Z,3.73
2019-05-28T08:31:48.857Z,4.10
2019-05-28T08:34:19.631Z,4.63
2019-05-28T08:37:04.352Z,4.77
2019-05-28T08:39:19.203Z,4.40
2019-05-28T08:41:47.636Z,3.87
2019-05-28T08:44:16.166Z,4.13
2019-05-28T08:46:44.596Z,3.37
2019-05-28T08:49:13.008Z,4.10
2019-05-28T08:51:41.424Z,3.53
2019-05-28T08:54:09.868Z,4.23
2019-05-28T08:56:38.285Z,3.90
2019-05-28T08:59:06.770Z,4.33
2019-05-28T09:01:35.198Z,3.97
2019-05-28T09:04:03.701Z,4.40
2019-05-28T09:06:32.108Z,3.83
2019-05-28T09:09:00.538Z,5.20
2019-05-28T09:11:28.958Z,4.77
2019-05-28T09:13:57.374Z,4.37
2019-05-28T09:16:25.799Z,4.63
2019-05-28T09:18:54.217Z,4.77
2019-05-28T09:21:22.718Z,4.73
2019-05-28T09:23:51.153Z,5.00
2019-05-28T09:26:19.572Z,4.70
2019-05-28T09:28:48.029Z,4.17
2019-05-28T09:31:16.450Z,4.90
2019-05-28T09:33:44.871Z,4.83
2019-05-28T09:36:13.388Z,4.77
2019-05-28T09:38:41.825Z,4.37
2019-05-28T09:41:10.261Z,4.37
2019-05-28T09:43:39.014Z,4.93
2019-05-28T09:46:07.444Z,5.10
2019-05-28T09:48:35.881Z,4.37
2019-05-28T09:51:04.416Z,4.47
2019-05-28T09:53:34.988Z,4.90
2019-05-28T09:56:03.157Z,3.93
2019-05-28T09:58:31.571Z,5.37
2019-05-28T10:01:00.353Z,4.53
2019-05-28T10:03:28.748Z,3.97
2019-05-28T10:06:13.407Z,4.20
2019-05-28T10:08:27.370Z,4.40
2019-05-28T10:10:55.784Z,4.43
2019-05-28T10:13:38.346Z,4.43
2019-05-28T10:15:54.383Z,4.03
2019-05-28T10:18:22.807Z,4.37
2019-05-28T10:20:51.290Z,3.80
2019-05-28T10:23:19.712Z,3.33
2019-05-28T10:25:48.113Z,3.67
2019-05-28T10:28:16.554Z,3.43
2019-05-28T10:30:44.971Z,3.30
2019-05-28T10:33:13.401Z,3.57
2019-05-28T10:35:41.823Z,3.60
2019-05-28T10:38:15.802Z,3.33
2019-05-28T10:40:40.397Z,3.10
2019-05-28T10:43:08.823Z,2.73
2019-05-28T10:45:37.298Z,3.03
2019-05-28T10:48:06.279Z,2.83
2019-05-28T10:50:34.729Z,2.60
2019-05-28T10:53:03.228Z,2.70
2019-05-28T10:55:31.645Z,3.23
2019-05-28T10:58:00.113Z,2.60
2019-05-28T11:00:28.871Z,2.73
2019-05-28T11:02:57.515Z,2.23
2019-05-28T11:05:26.781Z,1.80
2019-05-28T11:07:55.262Z,2.13
2019-05-28T11:10:25.319Z,1.90
2019-05-28T11:12:53.811Z,1.70
2019-05-28T11:15:23.968Z,1.80
2019-05-28T11:17:52.900Z,2.00
2019-05-28T11:20:22.361Z,1.83
2019-05-28T11:22:50.783Z,2.30
2019-05-28T11:25:20.965Z,2.20
2019-05-28T11:27:49.367Z,2.00
2019-05-28T11:30:19.142Z,2.03
2019-05-28T11:32:47.755Z,1.53
2019-05-28T11:35:17.530Z,2.13
2019-05-28T11:37:45.932Z,1.70
2019-05-28T11:40:16.220Z,1.80
2019-05-28T11:42:44.647Z,2.50
2019-05-28T11:45:16.435Z,2.37
2019-05-28T11:47:45.231Z,1.70
2019-05-28T11:50:13.807Z,2.40
2019-05-28T11:52:42.325Z,2.30
2019-05-28T11:55:16.269Z,2.20
2019-05-28T11:57:44.718Z,2.27
2019-05-28T12:00:15.595Z,1.83
2019-05-28T12:02:43.995Z,2.33
2019-05-28T12:05:13.837Z,1.97
2019-05-28T12:07:42.498Z,2.57
2019-05-28T12:10:13.094Z,2.00
2019-05-28T12:12:41.583Z,1.60
2019-05-28T12:15:11.913Z,2.10
2019-05-28T12:17:43.434Z,2.07
2019-05-28T12:20:12.984Z,2.00
2019-05-28T12:22:42.076Z,1.70
2019-05-28T12:25:12.616Z,1.60
2019-05-28T12:27:41.047Z,1.73
2019-05-28T12:30:12.111Z,1.67
2019-05-28T12:32:40.599Z,1.80
2019-05-28T12:35:26.319Z,1.60
2019-05-28T12:37:48.207Z,1.90
2019-05-28T12:40:10.163Z,1.50
2019-05-28T12:42:38.590Z,1.80
2019-05-28T12:45:10.651Z,1.80
2019-05-28T12:47:39.442Z,1.20
2019-05-28T12:50:19.132Z,1.70
2019-05-28T12:52:39.118Z,1.73
2019-05-28T12:55:10.376Z,1.80
2019-05-28T12:57:38.789Z,1.57
2019-05-28T13:00:11.873Z,1.43
2019-05-28T13:02:40.380Z,1.13
2019-05-28T13:05:14.305Z,1.70
2019-05-28T13:07:42.726Z,1.57
2019-05-28T13:10:11.558Z,1.40
2019-05-28T13:12:40.015Z,1.30
2019-05-28T13:15:10.205Z,1.43
2019-05-28T13:17:38.661Z,1.40
2019-05-28T13:20:09.072Z,1.33
2019-05-28T13:22:37.678Z,1.57
2019-05-28T13:25:09.209Z,1.33
2019-05-28T13:27:37.665Z,1.30
2019-05-28T13:30:13.897Z,1.50
2019-05-28T13:32:42.962Z,1.70
2019-05-28T13:35:13.950Z,1.50
2019-05-28T13:37:42.517Z,1.50
2019-05-28T13:40:13.382Z,1.73
2019-05-28T13:42:41.871Z,1.33
2019-05-28T13:45:11.341Z,1.17
2019-05-28T13:47:39.814Z,1.43
2019-05-28T13:50:12.677Z,1.47
2019-05-28T13:52:41.152Z,1.67
2019-05-28T13:55:10.694Z,1.47
2019-05-28T13:57:43.161Z,1.57
2019-05-28T14:00:14.782Z,1.30
2019-05-28T14:02:46.439Z,1.40
2019-05-28T14:05:16.058Z,1.40
2019-05-28T14:07:44.444Z,1.27
2019-05-28T14:10:13.579Z,1.33
2019-05-28T14:12:42.019Z,1.43
2019-05-28T14:15:13.603Z,1.30
2019-05-28T14:17:42.067Z,1.43
2019-05-28T14:20:12.012Z,1.20
2019-05-28T14:22:40.611Z,1.20
2019-05-28T14:25:10.257Z,1.17
2019-05-28T14:27:38.675Z,1.33
2019-05-28T14:30:13.191Z,1.40
2019-05-28T14:32:41.620Z,1.17
2019-05-28T14:35:10.607Z,1.20
2019-05-28T14:37:40.598Z,1.20
2019-05-28T14:40:10.586Z,1.20
2019-05-28T14:42:39.001Z,1.20
2019-05-28T14:45:09.513Z,1.20
2019-05-28T14:47:37.961Z,1.30
2019-05-28T14:50:07.912Z,1.07
2019-05-28T14:52:36.600Z,1.30
2019-05-28T14:55:10.224Z,1.40
2019-05-28T14:57:38.775Z,1.17
2019-05-28T15:00:10.084Z,1.53
2019-05-28T15:02:38.479Z,1.20
2019-05-28T15:05:09.560Z,1.00
2019-05-28T15:07:38.028Z,1.23
2019-05-28T15:10:07.922Z,0.90
2019-05-28T15:12:36.478Z,1.10
2019-05-28T15:15:07.067Z,1.00
2019-05-28T15:17:37.032Z,1.00
2019-05-28T15:20:08.499Z,1.00
2019-05-28T15:22:37.602Z,0.97
2019-05-28T15:25:09.791Z,1.07
2019-05-28T15:27:38.257Z,0.90
2019-05-28T15:30:11.433Z,0.97
2019-05-28T15:32:39.917Z,1.10
2019-05-28T15:35:09.457Z,1.00
2019-05-28T15:37:37.929Z,1.00
2019-05-28T15:40:08.058Z,1.07
2019-05-28T15:42:36.631Z,0.90
2019-05-28T15:45:11.864Z,1.10
2019-05-28T15:47:44.455Z,1.20
2019-05-28T15:50:12.691Z,1.00
2019-05-28T15:52:41.139Z,1.20
2019-05-28T15:55:10.037Z,1.03
2019-05-28T15:57:38.537Z,1.33
2019-05-28T16:00:08.596Z,1.00
2019-05-28T16:02:37.042Z,1.10
2019-05-28T16:05:06.887Z,1.10
2019-05-28T16:07:35.383Z,1.07
2019-05-28T16:10:08.893Z,0.80
2019-05-28T16:12:37.417Z,1.10
2019-05-28T16:15:10.882Z,0.90
2019-05-28T16:17:39.441Z,1.17
2019-05-28T16:20:08.719Z,1.30
2019-05-28T16:22:37.164Z,1.20
2019-05-28T16:25:09.889Z,1.50
2019-05-28T16:27:38.502Z,1.10
2019-05-28T16:30:09.082Z,1.20
2019-05-28T16:32:37.787Z,1.60
2019-05-28T16:35:07.585Z,1.70
2019-05-28T16:37:36.015Z,1.60
2019-05-28T16:40:14.956Z,1.60
2019-05-28T16:42:37.958Z,1.53
2019-05-28T16:45:08.600Z,1.80
2019-05-28T16:47:37.027Z,1.67
2019-05-28T16:50:07.554Z,1.70
2019-05-28T16:52:36.007Z,1.90
2019-05-28T16:55:06.128Z,2.30
2019-05-28T16:57:34.918Z,2.57
2019-05-28T17:00:05.305Z,2.50
2019-05-28T17:02:33.802Z,2.57
2019-05-28T17:05:02.292Z,2.77
2019-05-28T17:07:30.901Z,3.40
2019-05-28T17:09:59.287Z,3.90
2019-05-28T17:12:27.808Z,3.40
2019-05-28T17:14:56.388Z,3.90
2019-05-28T17:17:24.805Z,3.63
2019-05-28T17:19:53.254Z,3.87
2019-05-28T17:22:23.498Z,4.20
2019-05-28T17:24:51.999Z,4.00
2019-05-28T17:27:20.422Z,4.57
2019-05-28T17:29:50.683Z,4.30
2019-05-28T17:32:19.006Z,4.77
2019-05-28T17:34:47.524Z,4.67
2019-05-28T17:37:15.957Z,4.67
2019-05-28T17:39:44.400Z,4.63
2019-05-28T17:42:12.798Z,4.97
2019-05-28T17:44:41.677Z,4.90
2019-05-28T17:47:10.097Z,4.87
2019-05-28T17:49:38.529Z,4.83
2019-05-28T17:52:07.051Z,5.73
2019-05-28T17:54:35.561Z,5.13
2019-05-28T17:57:04.057Z,5.07
2019-05-28T17:59:32.510Z,4.70
2019-05-28T18:02:00.902Z,4.77
2019-05-28T18:04:29.314Z,4.43
2019-05-28T18:06:57.754Z,5.10
2019-05-28T18:09:26.161Z,4.80
2019-05-28T18:11:54.605Z,4.83
2019-05-28T18:14:23.873Z,5.10
2019-05-28T18:16:52.572Z,5.47
2019-05-28T18:19:21.006Z,5.77
2019-05-28T18:21:49.424Z,5.57
2019-05-28T18:24:20.868Z,5.83
2019-05-28T18:26:48.083Z,5.63
2019-05-28T18:29:16.441Z,4.77
2019-05-28T18:31:44.882Z,4.77
2019-05-28T18:34:13.392Z,5.23
2019-05-28T18:36:41.912Z,4.73
2019-05-28T18:39:10.325Z,4.67
2019-05-28T18:41:38.989Z,5.43
2019-05-28T18:44:07.365Z,4.90
2019-05-28T18:46:35.828Z,5.07
2019-05-28T18:49:05.897Z,5.13
2019-05-28T18:51:38.562Z,4.70
2019-05-28T18:54:05.925Z,5.07
2019-05-28T18:56:34.384Z,5.10
2019-05-28T18:59:03.120Z,5.13
2019-05-28T19:01:31.576Z,5.33
2019-05-28T19:04:00.340Z,5.23
2019-05-28T19:06:29.327Z,5.10
2019-05-28T19:08:57.763Z,5.43
2019-05-28T19:11:37.562Z,4.90
2019-05-28T19:13:56.439Z,5.50
2019-05-28T19:16:31.902Z,5.00
2019-05-28T19:19:00.316Z,5.50
2019-05-28T19:21:28.893Z,5.37
2019-05-28T19:23:57.459Z,5.00
2019-05-28T19:26:25.914Z,5.93
2019-05-28T19:28:56.929Z,5.80
2019-05-28T19:31:25.704Z,5.43
2019-05-28T19:33:54.160Z,5.60
2019-05-28T19:36:22.713Z,6.10
2019-05-28T19:38:51.770Z,5.50
2019-05-28T19:41:20.206Z,5.57
2019-05-28T19:43:48.698Z,5.53
2019-05-28T19:46:17.198Z,5.93
2019-05-28T19:48:45.950Z,5.93
2019-05-28T19:51:14.577Z,6.20
2019-05-28T19:53:43.003Z,5.87
2019-05-28T19:56:11.507Z,5.80
2019-05-28T19:58:40.081Z,5.57
2019-05-28T20:01:09.005Z,5.33
2019-05-28T20:03:37.697Z,4.90
2019-05-28T20:06:10.552Z,5.70
2019-05-28T20:08:36.754Z,5.10
2019-05-28T20:11:06.028Z,5.57
2019-05-28T20:13:34.518Z,5.67
2019-05-28T20:16:03.316Z,4.17
2019-05-28T20:18:32.323Z,3.63
2019-05-28T20:21:02.580Z,3.33
2019-05-28T20:23:31.268Z,2.60
2019-05-28T20:25:59.944Z,2.27
2019-05-28T20:28:28.718Z,2.10
2019-05-28T20:30:59.775Z,2.10
2019-05-28T20:33:28.623Z,1.97
2019-05-28T20:35:57.189Z,2.00
2019-05-28T20:38:25.639Z,1.57
2019-05-28T20:40:54.042Z,1.70
2019-05-28T20:43:22.444Z,2.07
2019-05-28T20:45:50.976Z,1.57
2019-05-28T20:48:19.456Z,1.47
2019-05-28T20:50:51.077Z,1.90
2019-05-28T20:53:33.251Z,1.60
2019-05-28T20:55:50.026Z,1.30
2019-05-28T20:58:18.479Z,1.90
2019-05-28T21:00:47.516Z,1.53
2019-05-28T21:03:16.001Z,1.70
2019-05-28T21:05:44.417Z,1.47
2019-05-28T21:08:12.855Z,1.60
2019-05-28T21:10:41.331Z,1.67
2019-05-28T21:13:09.770Z,2.00
2019-05-28T21:15:38.336Z,1.70
2019-05-28T21:18:07.020Z,1.40
2019-05-28T21:20:35.499Z,1.80
2019-05-28T21:23:04.062Z,1.50
2019-05-28T21:25:32.721Z,1.87
2019-05-28T21:28:04.053Z,1.70
2019-05-28T21:30:32.638Z,1.77
2019-05-28T21:33:01.060Z,1.60
2019-05-28T21:35:29.559Z,1.60
2019-05-28T21:37:59.155Z,1.70
2019-05-28T21:40:27.674Z,1.70
2019-05-28T21:43:01.321Z,1.37
2019-05-28T21:45:26.960Z,1.33
2019-05-28T21:47:56.489Z,1.33
2019-05-28T21:50:25.215Z,1.17
2019-05-28T21:52:54.847Z,1.67
2019-05-28T21:55:23.531Z,1.33
2019-05-28T21:57:55.862Z,1.20
2019-05-28T22:00:43.986Z,1.63
2019-05-28T22:03:12.633Z,1.67
2019-05-28T22:05:41.111Z,1.33
2019-05-28T22:08:10.283Z,1.33
2019-05-28T22:10:38.721Z,1.43
2019-05-28T22:13:21.336Z,1.57
2019-05-28T22:15:37.504Z,1.70
2019-05-28T22:18:06.006Z,1.43
2019-05-28T22:20:34.496Z,1.20
2019-05-28T22:23:02.902Z,1.30
2019-05-28T22:25:31.409Z,1.60
2019-05-28T22:28:00.591Z,1.37
2019-05-28T22:30:30.137Z,1.53
2019-05-28T22:32:59.893Z,1.27
2019-05-28T22:35:28.567Z,1.17
2019-05-28T22:37:57.206Z,1.43
2019-05-28T22:40:27.188Z,1.00
2019-05-28T22:42:56.472Z,1.20
2019-05-28T22:45:25.194Z,1.27
2019-05-28T22:47:53.616Z,1.30
2019-05-28T22:50:23.485Z,1.17
2019-05-28T22:52:52.195Z,1.23
2019-05-28T22:55:20.736Z,1.33
2019-05-28T22:57:49.172Z,1.30
2019-05-28T23:00:18.134Z,1.30
2019-05-28T23:02:46.626Z,1.30
2019-05-28T23:05:15.927Z,1.73
2019-05-28T23:07:44.338Z,1.50
2019-05-28T23:10:13.116Z,1.17
2019-05-28T23:12:41.541Z,1.17
2019-05-28T23:15:11.825Z,1.63
2019-05-28T23:17:40.255Z,1.23
2019-05-28T23:20:09.420Z,1.50
2019-05-28T23:22:37.903Z,1.60
2019-05-28T23:25:07.761Z,1.63
2019-05-28T23:27:36.297Z,2.10
2019-05-28T23:30:18.807Z,2.07
2019-05-28T23:32:36.343Z,1.60
2019-05-28T23:35:08.710Z,1.73
2019-05-28T23:37:37.613Z,1.50
2019-05-28T23:40:09.370Z,1.80
2019-05-28T23:42:38.176Z,2.10
2019-05-28T23:45:09.914Z,1.60
2019-05-28T23:47:38.379Z,1.57
2019-05-28T23:50:08.490Z,1.17
2019-05-28T23:52:38.020Z,1.30
2019-05-28T23:55:07.740Z,1.53
2019-05-28T23:57:36.460Z,1.53
